Time;durP1;ratioP1;P1;durP2;ratioP2;P2;SDS_P1;SDS_P2;PMS_P1;PMS_P2;Temp;Humidity;BMP_temperature;BMP_pressure;BME280_temperature;BME280_humidity;BME280_pressure;Samples;Min_cycle;Max_cycle;Signal;HPM_P1;HPM_P2
2023/02/16 00:00:19;;;;;;;69.47;30.23;;;;;;;-142.75;100.00;78448.66;4973782;28;20106;-68
2023/02/16 00:02:45;;;;;;;61.57;30.00;;;;;;;-142.75;100.00;78444.72;4973895;28;20026;-66
2023/02/16 00:05:21;;;;;;;;;;;;;;;-142.75;100.00;78452.59;4974451;28;20555;-67
2023/02/16 00:07:46;;;;;;;53.73;26.77;;;;;;;-142.75;100.00;78442.75;4973521;28;19910;-63
2023/02/16 00:10:12;;;;;;;;;;;;;;;-142.75;100.00;78438.81;4966654;28;20030;-67
2023/02/16 00:15:21;;;;;;;65.70;30.07;;;;;;;-142.75;100.00;78444.72;4954468;28;20042;-68
2023/02/16 00:17:46;;;;;;;;;;;;;;;-142.75;100.00;78442.75;4954807;28;20214;-64
2023/02/16 00:20:16;;;;;;;56.60;27.37;;;;;;;-142.75;100.00;78448.66;4954430;28;19919;-67
2023/02/16 00:22:41;;;;;;;62.07;29.10;;;;;;;-142.75;100.00;78458.50;4954334;28;20110;-66
2023/02/16 00:25:07;;;;;;;;;;;;;;;-142.75;100.00;78438.81;4954834;28;20102;-67
2023/02/16 00:27:33;;;;;;;57.33;27.73;;;;;;;-142.75;100.00;78450.63;4956075;28;19910;-67
2023/02/16 00:29:58;;;;;;;62.20;29.47;;;;;;;-142.75;100.00;78454.56;4956092;28;20034;-67
2023/02/16 00:32:23;;;;;;;;;;;;;;;-142.75;100.00;78456.53;4973979;28;20041;-67
2023/02/16 00:34:49;;;;;;;61.47;28.43;;;;;;;-142.75;100.00;78470.31;4971982;28;19914;-67
2023/02/16 00:37:14;;;;;;;;;;;;;;;-142.75;100.00;78460.47;4956549;28;20488;-67
2023/02/16 00:39:40;;;;;;;55.20;28.10;;;;;;;-142.75;100.00;78452.59;4973064;28;19909;-66
2023/02/16 00:42:10;;;;;;;61.80;27.67;;;;;;;-142.75;100.00;78450.63;4973259;28;20022;-67
2023/02/16 00:44:39;;;;;;;60.60;30.53;;;;;;;-142.75;100.00;78472.28;4973202;28;20022;-67
2023/02/16 00:47:24;;;;;;;59.93;30.17;;;;;;;-142.75;100.00;78466.38;4973201;28;20102;-67
2023/02/16 00:49:52;;;;;;;57.60;29.73;;;;;;;-142.75;100.00;78472.28;4973113;28;20029;-67
2023/02/16 00:52:32;;;;;;;63.17;31.03;;;;;;;-142.75;100.00;78478.19;4955823;28;20113;-67
2023/02/16 00:54:59;;;;;;;60.70;29.63;;;;;;;-142.75;100.00;78480.16;4955807;28;20384;-67
2023/02/16 00:57:29;;;;;;;60.27;30.77;;;;;;;-142.75;100.00;78472.28;4972905;28;20109;-66
2023/02/16 01:00:11;;;;;;;63.23;31.70;;;;;;;-142.75;100.00;78474.25;4954940;28;20096;-66
2023/02/16 01:02:37;;;;;;;62.93;29.93;;;;;;;-142.75;100.00;78478.19;4955629;28;20031;-67
2023/02/16 01:05:02;;;;;;;;;;;;;;;-142.75;100.00;78484.09;4973258;28;20030;-68
2023/02/16 01:12:55;;;;;;;62.10;29.50;;;;;;;-142.75;100.00;78468.34;4955327;28;20094;-67
2023/02/16 01:15:23;;;;;;;;;;;;;;;-142.75;100.00;78476.22;4958656;28;20019;-68
2023/02/16 01:17:48;;;;;;;61.57;28.67;;;;;;;-142.75;100.00;78472.28;4952669;28;19956;-67
2023/02/16 01:20:16;;;;;;;;;;;;;;;-142.75;100.00;78456.53;4953897;28;20126;-67
2023/02/16 01:22:41;;;;;;;54.17;26.80;;;;;;;-142.75;100.00;78464.41;4953264;28;20390;-67
2023/02/16 01:25:08;;;;;;;;;;;;;;;-142.75;100.00;78472.28;4953623;28;20031;-69
2023/02/16 01:27:36;;;;;;;58.50;27.73;;;;;;;-142.75;100.00;78468.34;4951933;28;19914;-67
2023/02/16 01:30:03;;;;;;;55.90;28.93;;;;;;;-142.75;100.00;78480.16;4953070;28;20289;-67
2023/02/16 01:32:29;;;;;;;60.50;29.23;;;;;;;-142.75;100.00;78478.19;4953165;28;20019;-66
2023/02/16 01:34:54;;;;;;;;;;;;;;;-142.75;100.00;78452.59;4952077;28;20505;-66
2023/02/16 01:37:19;;;;;;;56.77;28.77;;;;;;;-142.75;100.00;78478.19;4953046;28;19996;-64
2023/02/16 01:39:44;;;;;;;;;;;;;;;-142.75;100.00;78472.28;4953340;28;20429;-67
2023/02/16 01:42:40;;;;;;;57.57;28.40;;;;;;;-142.75;100.00;78472.28;4952999;28;19917;-68
2023/02/16 01:45:12;;;;;;;60.97;29.07;;;;;;;-142.75;100.00;78470.31;4952421;28;20137;-67
2023/02/16 01:47:46;;;;;;;56.77;28.00;;;;;;;-142.75;100.00;78452.59;4952862;28;20054;-66
2023/02/16 01:50:16;;;;;;;54.00;27.77;;;;;;;-142.75;100.00;78450.63;4956094;28;20050;-66
2023/02/16 01:52:46;;;;;;;57.57;28.57;;;;;;;-142.75;100.00;78474.25;4972013;28;20046;-67
2023/02/16 01:55:23;;;;;;;60.03;29.23;;;;;;;-142.75;100.00;78464.41;4954427;28;20034;-67
2023/02/16 01:57:54;;;;;;;54.60;28.53;;;;;;;-142.75;100.00;78462.44;4951674;28;20251;-65
2023/02/16 02:00:50;;;;;;;57.03;28.57;;;;;;;-142.75;100.00;78460.47;4951590;28;20023;-66
2023/02/16 02:06:10;;;;;;;55.13;27.43;;;;;;;-142.75;100.00;78460.47;4970349;28;20518;-67
2023/02/16 02:08:42;;;;;;;57.70;26.97;;;;;;;-142.75;100.00;78462.44;4971523;28;20039;-67
2023/02/16 02:11:13;;;;;;;57.03;28.53;;;;;;;-142.75;100.00;78452.59;4971909;28;20492;-67
2023/02/16 02:14:00;;;;;;;57.23;27.33;;;;;;;-142.75;100.00;78448.66;4971758;28;20070;-66
2023/02/16 02:16:27;;;;;;;61.03;27.00;;;;;;;-142.75;100.00;78456.53;4971918;28;20038;-67
2023/02/16 02:18:52;;;;;;;51.57;28.13;;;;;;;-142.75;100.00;78452.59;4954177;28;20022;-66
2023/02/16 02:24:19;;;;;;;52.93;26.40;;;;;;;-142.75;100.00;78438.81;4971858;28;19920;-67
2023/02/16 02:27:04;;;;;;;55.50;27.10;;;;;;;-142.75;100.00;78440.78;4954337;28;20062;-67
2023/02/16 02:30:14;;;;;;;56.03;28.00;;;;;;;-142.75;100.00;78440.78;4971562;28;20038;-67
2023/02/16 02:33:10;;;;;;;56.73;26.90;;;;;;;-142.75;100.00;78442.75;4938568;28;20404;-67
2023/02/16 02:35:57;;;;;;;58.77;28.07;;;;;;;-142.75;100.00;78440.78;4956416;28;20511;-67
2023/02/16 02:38:48;;;;;;;52.42;26.02;;;;;;;-142.75;100.00;78432.91;4956138;28;20278;-65
2023/02/16 02:44:17;;;;;;;51.50;26.23;;;;;;;-142.75;100.00;78425.03;4956124;28;20098;-67
2023/02/16 02:46:42;;;;;;;50.83;25.80;;;;;;;-142.75;100.00;78436.84;4954930;28;20031;-67
2023/02/16 02:49:08;;;;;;;;;;;;;;;-142.75;100.00;78436.84;4956336;28;20383;-68
2023/02/16 02:51:33;;;;;;;54.13;26.13;;;;;;;-142.75;100.00;78421.09;4956123;28;19926;-67
2023/02/16 03:02:59;;;;;;;48.60;25.55;;;;;;;-142.75;100.00;78413.22;4955927;28;20038;-66
2023/02/16 03:05:28;;;;;;;51.67;26.60;;;;;;;-142.75;100.00;78393.50;4959029;28;20114;-66
2023/02/16 03:08:12;;;;;;;51.77;25.93;;;;;;;-142.75;100.00;78413.22;4974813;28;20058;-67
2023/02/16 03:13:28;;;;;;;49.90;24.07;;;;;;;-142.75;100.00;78397.44;4975264;28;20048;-67
2023/02/16 03:15:56;;;;;;;52.97;26.03;;;;;;;-142.75;100.00;78387.59;4974991;28;20667;-67
2023/02/16 03:29:35;;;;;;;47.37;26.20;;;;;;;-142.75;100.00;78393.50;4955264;28;20408;-66
2023/02/16 03:32:01;;;;;;;52.10;25.17;;;;;;;-142.75;100.00;78401.38;4954031;28;20396;-67
2023/02/16 03:34:28;;;;;;;;;;;;;;;-142.75;100.00;78393.50;4955761;28;20476;-66
2023/02/16 03:36:59;;;;;;;45.67;23.77;;;;;;;-142.75;100.00;78389.56;4957218;28;19957;-66
2023/02/16 03:39:27;;;;;;;48.73;25.23;;;;;;;-142.75;100.00;78381.69;4974398;28;20125;-67
2023/02/16 03:41:54;;;;;;;53.07;26.80;;;;;;;-142.75;100.00;78373.81;4951306;28;20026;-66
2023/02/16 03:44:19;;;;;;;56.83;26.53;;;;;;;-142.75;100.00;78365.94;4969719;28;20031;-65
2023/02/16 03:46:48;;;;;;;;;;;;;;;-142.75;100.00;78360.03;4955638;28;20027;-67
2023/02/16 03:49:14;;;;;;;53.57;24.73;;;;;;;-142.75;100.00;78348.22;4954856;28;20418;-67
2023/02/16 03:51:39;;;;;;;;;;;;;;;-142.75;100.00;78336.41;4955495;28;20027;-67
2023/02/16 03:54:04;;;;;;;51.27;25.23;;;;;;;-142.75;100.00;78338.38;4954690;28;19922;-66
2023/02/16 03:56:29;;;;;;;;;;;;;;;-142.75;100.00;78330.50;4968471;28;20023;-68
2023/02/16 03:58:55;;;;;;;48.67;26.03;;;;;;;-142.75;100.00;78344.28;4973867;28;19917;-67
2023/02/16 04:01:20;;;;;;;;;;;;;;;-142.75;100.00;78338.38;4974485;28;20033;-66
2023/02/16 04:03:45;;;;;;;53.20;26.00;;;;;;;-142.75;100.00;78330.50;4974021;28;19957;-67
2023/02/16 04:06:11;;;;;;;;;;;;;;;-142.75;100.00;78334.44;4974347;28;20113;-67
2023/02/16 04:08:36;;;;;;;49.50;25.23;;;;;;;-142.75;100.00;78322.63;4956497;28;19910;-66
2023/02/16 04:12:34;;;;;;;;;;;;;;;-142.75;100.00;78316.72;4974372;28;20031;-66
2023/02/16 04:14:24;;;;;;;49.57;26.10;;;;;;;-142.75;100.00;78322.63;4973809;28;19933;-67
2023/02/16 04:16:49;;;;;;;57.03;25.77;;;;;;;-142.75;100.00;78330.50;4973788;28;20086;-67
2023/02/16 04:19:15;;;;;;;;;;;;;;;-142.75;100.00;78326.56;4973949;28;20034;-66
2023/02/16 04:21:41;;;;;;;51.17;24.87;;;;;;;-142.75;100.00;78324.59;4956509;28;19920;-67
2023/02/16 04:24:07;;;;;;;53.07;26.10;;;;;;;-142.75;100.00;78326.56;4973417;28;20061;-67
2023/02/16 04:26:32;;;;;;;;;;;;;;;-142.75;100.00;78330.50;4974189;28;20054;-67
2023/02/16 04:28:57;;;;;;;58.07;27.37;;;;;;;-142.75;100.00;78320.66;4956034;28;19914;-67
2023/02/16 04:31:22;;;;;;;55.20;27.57;;;;;;;-142.75;100.00;78318.69;4955425;28;20035;-66
2023/02/16 04:33:48;;;;;;;;;;;;;;;-142.75;100.00;78308.84;4954790;28;20035;-69
2023/02/16 04:36:13;;;;;;;54.57;25.97;;;;;;;-142.75;100.00;78314.75;4954176;28;20359;-67
2023/02/16 04:38:38;;;;;;;;;;;;;;;-142.75;100.00;78302.94;4953079;28;20057;-67
2023/02/16 04:41:04;;;;;;;50.60;25.23;;;;;;;-142.75;100.00;78300.97;4954129;28;19910;-67
2023/02/16 04:43:29;;;;;;;;;;;;;;;-142.75;100.00;78304.91;4956443;28;20484;-67
2023/02/16 04:45:54;;;;;;;55.63;25.23;;;;;;;-142.75;100.00;78308.84;4955780;28;20486;-68
2023/02/16 04:48:20;;;;;;;;;;;;;;;-142.75;100.00;78316.72;4973449;28;20472;-66
2023/02/16 04:50:45;;;;;;;50.27;26.17;;;;;;;-142.75;100.00;78318.69;4955828;28;20009;-67
2023/02/16 04:53:10;;;;;;;;;;;;;;;-142.75;100.00;78318.69;4972589;28;20025;-67
2023/02/16 04:55:35;;;;;;;53.80;27.37;;;;;;;-142.75;100.00;78332.47;4972923;28;19910;-67
2023/02/16 04:58:01;;;;;;;;;;;;;;;-142.75;100.00;78326.56;4973172;28;20480;-67
2023/02/16 05:00:26;;;;;;;55.37;26.33;;;;;;;-142.75;100.00;78330.50;4972971;28;19910;-67
2023/02/16 05:02:51;;;;;;;;;;;;;;;-142.75;100.00;78334.44;4956006;28;20384;-68
2023/02/16 05:05:17;;;;;;;57.30;27.63;;;;;;;-142.75;100.00;78336.41;4972935;28;19918;-66
2023/02/16 05:07:42;;;;;;;;;;;;;;;-142.75;100.00;78330.50;4973193;28;20039;-66
2023/02/16 05:10:08;;;;;;;51.20;25.77;;;;;;;-142.75;100.00;78322.63;4955392;28;19914;-66
2023/02/16 05:15:17;;;;;;;52.60;26.27;;;;;;;-142.75;100.00;78324.59;4972755;28;20550;-66
2023/02/16 05:17:43;;;;;;;;;;;;;;;-142.75;100.00;78324.59;4973016;28;20027;-66
2023/02/16 05:20:09;;;;;;;52.40;27.30;;;;;;;-142.75;100.00;78324.59;4972469;28;19945;-68
2023/02/16 05:22:37;;;;;;;56.33;28.43;;;;;;;-142.75;100.00;78326.56;4955182;28;20041;-68
2023/02/16 05:25:04;;;;;;;55.97;28.00;;;;;;;-142.75;100.00;78318.69;4972384;28;20379;-68
2023/02/16 05:27:30;;;;;;;56.33;28.23;;;;;;;-142.75;100.00;78320.66;4972321;28;20061;-66
2023/02/16 05:29:56;;;;;;;;;;;;;;;-142.75;100.00;78326.56;4972657;28;20361;-68
2023/02/16 05:32:22;;;;;;;42.77;20.93;;;;;;;-142.75;100.00;78316.72;4955156;28;19910;-66
2023/02/16 05:34:47;;;;;;;;;;;;;;;-142.75;100.00;78308.84;4972623;28;20022;-68
2023/02/16 05:37:15;;;;;;;52.63;26.73;;;;;;;-142.75;100.00;78314.75;4972371;28;19916;-66
2023/02/16 05:39:40;;;;;;;54.33;26.47;;;;;;;-142.75;100.00;78314.75;4954722;28;20034;-67
2023/02/16 05:42:05;;;;;;;;;;;;;;;-142.75;100.00;78306.88;4972520;28;20492;-66
2023/02/16 05:44:31;;;;;;;50.67;26.40;;;;;;;-142.75;100.00;78316.72;4971909;28;19914;-66
2023/02/16 05:46:56;;;;;;;;;;;;;;;-142.75;100.00;78314.75;4972529;28;20023;-67
2023/02/16 05:49:22;;;;;;;49.53;25.43;;;;;;;-142.75;100.00;78324.59;4972030;28;19910;-67
2023/02/16 05:51:47;;;;;;;;;;;;;;;-142.75;100.00;78318.69;4972569;28;20030;-66
2023/02/16 05:54:16;;;;;;;50.20;25.53;;;;;;;-142.75;100.00;78318.69;4962735;28;19922;-67
2023/02/16 05:56:46;;;;;;;53.70;26.40;;;;;;;-142.75;100.00;78320.66;4950330;28;20054;-67
2023/02/16 05:59:12;;;;;;;52.67;27.53;;;;;;;-142.75;100.00;78312.78;4952665;28;20027;-66
2023/02/16 06:01:39;;;;;;;;;;;;;;;-142.75;100.00;78316.72;4953258;28;20031;-67
2023/02/16 06:04:06;;;;;;;61.27;27.33;;;;;;;-142.75;100.00;78324.59;4952468;28;19921;-66
2023/02/16 06:06:31;;;;;;;54.87;28.00;;;;;;;-142.75;100.00;78318.69;4952686;28;20597;-66
2023/02/16 06:08:56;;;;;;;;;;;;;;;-142.75;100.00;78308.84;4952905;28;20263;-66
2023/02/16 06:11:37;;;;;;;55.93;28.30;;;;;;;-142.75;100.00;78322.63;4952589;28;19918;-68
2023/02/16 06:14:07;;;;;;;60.90;28.83;;;;;;;-142.75;100.00;78310.81;4952523;28;20027;-67
2023/02/16 06:16:34;;;;;;;59.30;29.50;;;;;;;-142.75;100.00;78300.97;4954660;28;20491;-68
2023/02/16 06:19:00;;;;;;;54.33;27.60;;;;;;;-142.75;100.00;78300.97;4971675;28;20032;-66
2023/02/16 06:21:25;;;;;;;;;;;;;;;-142.75;100.00;78308.84;4972257;28;20399;-67
2023/02/16 06:23:51;;;;;;;43.00;21.03;;;;;;;-142.75;100.00;78306.88;4971834;28;19921;-67
2023/02/16 06:26:17;;;;;;;55.53;29.77;;;;;;;-142.75;100.00;78297.00;4971680;28;20451;-69
2023/02/16 06:28:42;;;;;;;;;;;;;;;-142.75;100.00;78291.09;4971996;28;20029;-66
2023/02/16 06:31:08;;;;;;;52.10;27.20;;;;;;;-142.75;100.00;78297.00;4971810;28;19914;-66
2023/02/16 06:33:33;;;;;;;;;;;;;;;-142.75;100.00;78302.94;4972100;28;20022;-67
2023/02/16 06:35:58;;;;;;;57.27;25.93;;;;;;;-142.75;100.00;78302.94;4971643;28;20306;-67
2023/02/16 06:38:24;;;;;;;;;;;;;;;-142.75;100.00;78289.13;4954408;28;20014;-67
2023/02/16 06:40:53;;;;;;;51.63;26.10;;;;;;;-142.75;100.00;78291.09;4962914;28;20395;-66
2023/02/16 06:43:18;;;;;;;55.83;27.43;;;;;;;-142.75;100.00;78295.06;4952377;28;20077;-65
2023/02/16 06:45:44;;;;;;;;;;;;;;;-142.75;100.00;78291.09;4951569;28;20547;-66
2023/02/16 06:48:09;;;;;;;57.10;28.23;;;;;;;-142.75;100.00;78295.06;4950850;28;20516;-66
2023/02/16 06:50:34;;;;;;;;;;;;;;;-142.75;100.00;78300.97;4951548;28;20400;-68
2023/02/16 06:53:00;;;;;;;62.80;27.97;;;;;;;-142.75;100.00;78299.00;4952208;28;19942;-67
2023/02/16 06:55:25;;;;;;;;;;;;;;;-142.75;100.00;78312.78;4952582;28;20019;-66
2023/02/16 06:57:50;;;;;;;53.63;27.70;;;;;;;-142.75;100.00;78310.81;4950738;28;20038;-66
2023/02/16 07:00:16;;;;;;;62.00;29.47;;;;;;;-142.75;100.00;78306.88;4952253;28;20019;-65
2023/02/16 07:02:42;;;;;;;;;;;;;;;-142.75;100.00;78302.94;4952686;28;20035;-66
2023/02/16 07:05:08;;;;;;;56.73;28.67;;;;;;;-142.75;100.00;78299.00;4950848;28;20288;-67
2023/02/16 07:07:33;;;;;;;;;;;;;;;-142.75;100.00;78291.09;4951218;28;20023;-66
2023/02/16 07:09:59;;;;;;;53.53;28.63;;;;;;;-142.75;100.00;78300.97;4950746;28;19964;-66
2023/02/16 07:12:24;;;;;;;;;;;;;;;-142.75;100.00;78299.00;4952701;28;20494;-67
2023/02/16 07:14:49;;;;;;;56.30;26.53;;;;;;;-142.75;100.00;78289.13;4952087;28;19910;-66
2023/02/16 07:17:15;;;;;;;53.10;27.47;;;;;;;-142.75;100.00;78287.16;4954596;28;20361;-66
2023/02/16 07:19:40;;;;;;;;;;;;;;;-142.75;100.00;78277.31;4955852;28;20113;-67
2023/02/16 07:22:06;;;;;;;53.43;27.73;;;;;;;-142.75;100.00;78279.28;4955491;28;19914;-67
2023/02/16 07:24:31;;;;;;;54.90;28.03;;;;;;;-142.75;100.00;78271.41;4954088;28;20035;-66
2023/02/16 07:26:56;;;;;;;;;;;;;;;-142.75;100.00;78281.25;4957788;28;20050;-67
2023/02/16 07:29:22;;;;;;;58.77;26.80;;;;;;;-142.75;100.00;78291.09;4974584;28;19909;-66
2023/02/16 07:31:47;;;;;;;;;;;;;;;-142.75;100.00;78275.34;4975030;28;20030;-66
2023/02/16 07:34:12;;;;;;;57.23;27.43;;;;;;;-142.75;100.00;78291.09;4974654;28;19909;-67
2023/02/16 07:36:38;;;;;;;;;;;;;;;-142.75;100.00;78281.25;4974855;28;20379;-67
2023/02/16 07:39:03;;;;;;;54.90;27.03;;;;;;;-142.75;100.00;78273.38;4953763;28;20386;-67
2023/02/16 07:41:28;;;;;;;;;;;;;;;-142.75;100.00;78279.28;4954447;28;20026;-67
2023/02/16 07:43:53;;;;;;;55.97;27.47;;;;;;;-142.75;100.00;78287.16;4954964;28;19921;-66
2023/02/16 07:46:19;;;;;;;;;;;;;;;-142.75;100.00;78291.09;4955647;28;20113;-68
2023/02/16 07:48:48;;;;;;;55.97;27.17;;;;;;;-142.75;100.00;78289.13;4954816;28;20403;-66
2023/02/16 07:51:20;;;;;;;52.97;28.00;;;;;;;-142.75;100.00;78297.00;4955019;28;20039;-67
2023/02/16 07:53:46;;;;;;;58.90;28.80;;;;;;;-142.75;100.00;78302.94;4954979;28;20025;-66
2023/02/16 07:56:17;;;;;;;;;;;;;;;-142.75;100.00;78291.09;4955282;28;20098;-66
2023/02/16 07:58:42;;;;;;;52.23;26.87;;;;;;;-142.75;100.00;78281.25;4954741;28;19910;-65
2023/02/16 08:01:09;;;;;;;;;;;;;;;-142.75;100.00;78295.06;4954023;28;20027;-68
2023/02/16 08:03:34;;;;;;;54.10;27.03;;;;;;;-142.75;100.00;78289.13;4954779;28;19918;-67
2023/02/16 08:06:00;;;;;;;;;;;;;;;-142.75;100.00;78283.22;4955139;28;20408;-67
2023/02/16 08:08:26;;;;;;;52.07;26.63;;;;;;;-142.75;100.00;78287.16;4954566;28;19993;-67
2023/02/16 08:10:51;;;;;;;;;;;;;;;-142.75;100.00;78281.25;4955322;28;20070;-67
2023/02/16 08:13:16;;;;;;;54.53;26.57;;;;;;;-142.75;100.00;78271.41;4971149;28;20318;-64
2023/02/16 08:15:43;;;;;;;;;;;;;;;-142.75;100.00;78269.44;4958634;28;20027;-67
2023/02/16 08:18:08;;;;;;;53.93;28.03;;;;;;;-142.75;100.00;78269.44;4952977;28;19918;-67
2023/02/16 08:20:33;;;;;;;;;;;;;;;-142.75;100.00;78279.28;4957342;28;20059;-67
2023/02/16 08:22:58;;;;;;;57.23;27.77;;;;;;;-142.75;100.00;78265.50;4965650;28;19914;-66
2023/02/16 08:25:24;;;;;;;;;;;;;;;-142.75;100.00;78273.38;4945000;28;20030;-67
2023/02/16 08:27:49;;;;;;;55.50;27.43;;;;;;;-142.75;100.00;78267.47;4956421;28;20009;-68
2023/02/16 08:30:17;;;;;;;;;;;;;;;-142.75;100.00;78259.59;4951488;28;20022;-68
2023/02/16 08:32:43;;;;;;;53.55;28.02;;;;;;;-142.75;100.00;78267.47;4956318;28;19923;-67
2023/02/16 08:35:09;;;;;;;54.47;28.87;;;;;;;-142.75;100.00;78259.59;4956124;28;20029;-68
2023/02/16 08:37:36;;;;;;;;;;;;;;;-142.75;100.00;78271.41;4954489;28;20027;-68
2023/02/16 08:40:03;;;;;;;;;;;;;;;-142.75;100.00;78255.66;4951989;28;20402;-67
2023/02/16 08:42:28;;;;;;;54.65;28.40;;;;;;;-142.75;100.00;78257.63;4951519;28;19910;-66
2023/02/16 08:44:54;;;;;;;;;;;;;;;-142.75;100.00;78251.72;4950426;28;20038;-67
2023/02/16 08:47:19;;;;;;;65.07;29.30;;;;;;;-142.75;100.00;78247.78;4953685;28;19917;-67
2023/02/16 08:49:45;;;;;;;;;;;;;;;-142.75;100.00;78251.72;4953865;28;20034;-68
2023/02/16 08:52:11;;;;;;;51.60;28.50;;;;;;;-142.75;100.00;78249.75;4952626;28;19929;-67
2023/02/16 08:54:37;;;;;;;57.00;29.70;;;;;;;-142.75;100.00;78232.03;4953768;28;20035;-67
2023/02/16 08:57:03;;;;;;;60.77;31.67;;;;;;;-142.75;100.00;78243.84;4953871;28;20417;-66
2023/02/16 08:59:29;;;;;;;;;;;;;;;-142.75;100.00;78228.09;4954245;28;20054;-66
2023/02/16 09:01:55;;;;;;;55.93;29.53;;;;;;;-142.75;100.00;78249.75;4953634;28;19929;-67
2023/02/16 09:04:21;;;;;;;56.17;29.77;;;;;;;-142.75;100.00;78247.78;4953622;28;20032;-66
2023/02/16 09:06:49;;;;;;;;;;;;;;;-142.75;100.00;78232.03;4970442;28;20026;-66
2023/02/16 09:09:15;;;;;;;57.13;28.50;;;;;;;-142.75;100.00;78239.91;4971705;28;20353;-67
2023/02/16 09:11:41;;;;;;;58.23;29.50;;;;;;;-142.75;100.00;78228.09;4952241;28;20019;-66
2023/02/16 09:14:08;;;;;;;;;;;;;;;-142.75;100.00;78214.31;4953897;28;20026;-66
2023/02/16 09:16:35;;;;;;;61.03;30.73;;;;;;;-142.75;100.00;78198.56;4953475;28;19915;-67
2023/02/16 09:19:01;;;;;;;62.00;31.83;;;;;;;-142.75;100.00;78192.66;4953274;28;20030;-67
2023/02/16 09:21:27;;;;;;;;;;;;;;;-142.75;100.00;78210.38;4953912;28;20019;-67
2023/02/16 09:23:55;;;;;;;61.87;31.63;;;;;;;-142.75;100.00;78204.47;4953352;28;19953;-67
2023/02/16 09:26:22;;;;;;;61.27;32.27;;;;;;;-142.75;100.00;78208.41;4953361;28;20026;-67
2023/02/16 09:28:49;;;;;;;60.30;31.93;;;;;;;-142.75;100.00;78208.41;4952995;28;20034;-66
2023/02/16 09:31:27;;;;;;;62.60;32.57;;;;;;;-142.75;100.00;78220.22;4953266;28;20026;-66
2023/02/16 09:33:55;;;;;;;69.30;33.23;;;;;;;-142.75;100.00;78204.47;4953286;28;20047;-67
2023/02/16 09:36:22;;;;;;;61.63;33.17;;;;;;;-142.75;100.00;78192.66;4953185;28;20077;-67
2023/02/16 09:38:47;;;;;;;;;;;;;;;-142.75;100.00;78192.66;4969863;28;20063;-67
2023/02/16 09:41:32;;;;;;;66.27;31.00;;;;;;;-142.75;100.00;78194.63;4954965;28;19964;-66
2023/02/16 09:44:03;;;;;;;63.57;32.47;;;;;;;-142.75;100.00;78184.78;4951766;28;20054;-67
2023/02/16 09:46:30;;;;;;;62.53;33.13;;;;;;;-142.75;100.00;78172.94;4953114;28;20027;-67
2023/02/16 09:48:55;;;;;;;68.13;34.93;;;;;;;-142.75;100.00;78149.31;4951462;28;20403;-66
2023/02/16 09:51:26;;;;;;;;;;;;;;;-142.75;100.00;78131.59;4953465;28;20027;-67
2023/02/16 09:53:59;;;;;;;57.87;30.43;;;;;;;-142.75;100.00;78135.53;4952929;28;19910;-66
2023/02/16 09:56:42;;;;;;;65.03;33.93;;;;;;;-142.75;100.00;78113.88;4952984;28;20102;-64
2023/02/16 09:59:58;;;;;;;62.90;34.37;;;;;;;-142.75;100.00;78115.84;4952596;28;20027;-67
2023/02/16 10:02:53;;;;;;;61.00;32.40;;;;;;;-142.75;100.00;78109.94;4909882;28;20073;-67
2023/02/16 10:05:29;;;;;;;64.37;32.53;;;;;;;-142.75;100.00;78094.19;4952808;28;20030;-66
2023/02/16 10:08:02;;;;;;;64.27;32.43;;;;;;;-142.75;100.00;78086.31;4951269;28;20472;-67
2023/02/16 10:10:48;;;;;;;67.40;32.03;;;;;;;-142.75;100.00;78082.38;4952703;28;20273;-68
2023/02/16 10:13:23;;;;;;;66.72;31.30;;;;;;;-142.75;100.00;78096.16;4952747;28;20114;-67
2023/02/16 10:15:51;;;;;;;61.53;32.00;;;;;;;-142.75;100.00;78090.25;4952503;28;20027;-66
2023/02/16 10:18:22;;;;;;;68.23;32.77;;;;;;;-142.75;100.00;78066.63;4952376;28;20488;-67
2023/02/16 10:20:52;;;;;;;64.60;32.10;;;;;;;-142.75;100.00;78058.72;4952742;28;20035;-67
2023/02/16 10:23:36;;;;;;;60.70;32.87;;;;;;;-142.75;100.00;78062.69;4952521;28;20034;-67
2023/02/16 10:26:15;;;;;;;63.20;31.33;;;;;;;-142.75;100.00;78066.63;4952534;28;20027;-67
2023/02/16 10:28:46;;;;;;;63.73;31.07;;;;;;;-142.75;100.00;78070.56;4951052;28;20475;-69
2023/02/16 10:31:24;;;;;;;60.83;29.70;;;;;;;-142.75;100.00;78066.63;4952510;28;20480;-68
2023/02/16 10:34:15;;;;;;;72.13;32.37;;;;;;;-142.75;100.00;78052.81;4959887;28;20019;-67
2023/02/16 10:36:56;;;;;;;62.67;33.17;;;;;;;-142.75;100.00;78062.69;4967790;28;20019;-68
2023/02/16 10:39:31;;;;;;;60.37;32.17;;;;;;;-142.75;100.00;78080.41;4971587;28;20480;-67
2023/02/16 10:42:03;;;;;;;56.23;30.77;;;;;;;-142.75;100.00;78062.69;4971779;28;20101;-67
2023/02/16 10:44:55;;;;;;;61.33;30.93;;;;;;;-142.75;100.00;78078.44;4954157;28;20039;-67
2023/02/16 10:47:34;;;;;;;69.37;33.33;;;;;;;-142.75;100.00;78064.66;4971435;28;20027;-65
2023/02/16 10:49:59;;;;;;;59.70;32.63;;;;;;;-142.75;100.00;78058.72;4967747;28;20492;-68
2023/02/16 10:52:26;;;;;;;;;;;;;;;-142.75;100.00;78046.91;4955621;28;20023;-67
2023/02/16 10:54:52;;;;;;;55.75;29.55;;;;;;;-142.75;100.00;78062.69;4954747;28;19918;-68
2023/02/16 10:57:29;;;;;;;71.70;33.10;;;;;;;-142.75;100.00;78037.06;4956015;28;20400;-66
2023/02/16 10:59:58;;;;;;;75.60;37.20;;;;;;;-142.75;100.00;78019.34;4955901;28;20039;-65
2023/02/16 11:02:59;;;;;;;69.50;33.17;;;;;;;-142.75;100.00;78027.22;4955923;28;20028;-67
2023/02/16 11:05:30;;;;;;;58.37;32.83;;;;;;;-142.75;100.00;77979.97;4912732;28;20101;-68
2023/02/16 11:08:00;;;;;;;66.57;34.23;;;;;;;-142.75;100.00;77979.97;4961800;28;20086;-67
2023/02/16 11:10:50;;;;;;;60.53;34.20;;;;;;;-142.75;100.00;77966.19;4957773;28;20080;-68
2023/02/16 11:13:25;;;;;;;63.70;34.20;;;;;;;-142.75;100.00;77905.13;4954457;28;20030;-67
2023/02/16 11:15:54;;;;;;;62.13;32.38;;;;;;;-142.75;100.00;77826.38;4955689;28;20019;-68
2023/02/16 11:18:32;;;;;;;51.15;30.42;;;;;;;-142.75;100.00;77794.88;4955402;28;20019;-67
2023/02/16 11:20:58;;;;;;;59.58;29.50;;;;;;;-142.75;100.00;77798.81;4964958;28;20031;-68
2023/02/16 11:23:23;;;;;;;;;;;;;;;-142.75;100.00;77828.34;4955986;28;20029;-68
2023/02/16 11:26:20;;;;;;;56.38;28.27;;;;;;;-142.75;100.00;77846.06;4955380;28;20323;-66
2023/02/16 11:28:47;;;;;;;54.88;28.45;;;;;;;-142.75;100.00;77857.88;4954052;28;20019;-68
2023/02/16 11:31:18;;;;;;;49.42;28.17;;;;;;;-142.75;100.00;77873.63;4955467;28;20361;-68
2023/02/16 11:34:03;;;;;;;56.35;27.35;;;;;;;-142.75;100.00;77913.03;4954069;28;20050;-67
2023/02/16 11:36:31;;;;;;;51.58;28.30;;;;;;;-142.75;100.00;77913.03;4955453;28;20027;-68
2023/02/16 11:39:16;;;;;;;55.47;29.23;;;;;;;-142.75;100.00;77932.72;4955074;28;20523;-68
2023/02/16 11:41:51;;;;;;;51.78;27.45;;;;;;;-142.75;100.00;77936.66;4955415;28;20027;-68
2023/02/16 11:44:31;;;;;;;57.00;28.45;;;;;;;-142.75;100.00;77893.31;4954788;28;20090;-67
2023/02/16 11:46:58;;;;;;;53.53;28.58;;;;;;;-142.75;100.00;77903.16;4955045;28;20688;-68
2023/02/16 11:49:29;;;;;;;59.03;28.77;;;;;;;-142.75;100.00;77861.81;4954909;28;20107;-68
2023/02/16 11:51:55;;;;;;;56.83;28.33;;;;;;;-142.75;100.00;77838.19;4955017;28;20023;-67
2023/02/16 11:54:20;;;;;;;;;;;;;;;-142.75;100.00;77808.66;4960616;28;20440;-66
2023/02/16 11:57:04;;;;;;;50.22;26.52;;;;;;;-142.75;100.00;77743.69;4955643;28;19910;-69
2023/02/16 11:59:37;;;;;;;51.65;27.70;;;;;;;-142.75;100.00;77771.25;4954817;28;20030;-68
2023/02/16 12:02:15;;;;;;;51.00;27.55;;;;;;;-142.75;100.00;77739.75;4954539;28;20023;-67
2023/02/16 12:04:59;;;;;;;49.55;26.67;;;;;;;-142.75;100.00;77722.00;4953256;28;20050;-68
2023/02/16 12:07:55;;;;;;;52.78;26.35;;;;;;;-142.75;100.00;77692.47;4954646;28;20043;-68